sensor_id;sensor_type;location;lat;lon;timestamp;pressure;altitude;pressure_sealevel;temperature;humidity
31595;BME280;18200;48.726;8.892;2022-12-08T00:00:13;96315.50;;;11.24;41.33
31595;BME280;18200;48.726;8.892;2022-12-08T00:04:13;96322.88;;;11.34;41.45
31595;BME280;18200;48.726;8.892;2022-12-08T00:08:14;96312.88;;;11.31;40.94
31595;BME280;18200;48.726;8.892;2022-12-08T00:12:33;96306.06;;;11.44;41.28
31595;BME280;18200;48.726;8.892;2022-12-08T00:16:33;96306.13;;;11.51;40.73
31595;BME280;18200;48.726;8.892;2022-12-08T00:20:33;96299.94;;;11.43;41.03
31595;BME280;18200;48.726;8.892;2022-12-08T00:24:34;96297.56;;;11.35;40.38
31595;BME280;18200;48.726;8.892;2022-12-08T00:28:37;96289.88;;;11.37;41.10
31595;BME280;18200;48.726;8.892;2022-12-08T00:32:37;96276.78;;;11.32;40.76
31595;BME280;18200;48.726;8.892;2022-12-08T00:36:38;96279.06;;;11.30;40.37
31595;BME280;18200;48.726;8.892;2022-12-08T00:40:43;96274.38;;;11.20;40.60
31595;BME280;18200;48.726;8.892;2022-12-08T00:44:44;96285.13;;;11.20;40.50
31595;BME280;18200;48.726;8.892;2022-12-08T00:48:45;96276.19;;;11.09;40.38
31595;BME280;18200;48.726;8.892;2022-12-08T00:52:45;96268.13;;;11.09;40.52
31595;BME280;18200;48.726;8.892;2022-12-08T00:56:45;96274.31;;;11.13;40.45
31595;BME280;18200;48.726;8.892;2022-12-08T01:00:45;96268.16;;;10.75;40.27
31595;BME280;18200;48.726;8.892;2022-12-08T01:04:46;96268.41;;;10.63;40.76
31595;BME280;18200;48.726;8.892;2022-12-08T01:08:46;96260.84;;;10.72;41.27
31595;BME280;18200;48.726;8.892;2022-12-08T01:12:46;96268.44;;;10.67;40.97
31595;BME280;18200;48.726;8.892;2022-12-08T01:16:46;96270.78;;;10.68;41.15
31595;BME280;18200;48.726;8.892;2022-12-08T01:20:47;96277.78;;;10.76;40.67
31595;BME280;18200;48.726;8.892;2022-12-08T01:24:47;96285.44;;;10.78;41.21
31595;BME280;18200;48.726;8.892;2022-12-08T01:28:47;96283.88;;;10.73;40.82
31595;BME280;18200;48.726;8.892;2022-12-08T01:32:48;96281.94;;;10.70;40.92
31595;BME280;18200;48.726;8.892;2022-12-08T01:36:48;96283.94;;;10.77;40.71
31595;BME280;18200;48.726;8.892;2022-12-08T01:40:48;96277.97;;;10.61;40.27
31595;BME280;18200;48.726;8.892;2022-12-08T01:44:52;96275.94;;;10.51;40.36
31595;BME280;18200;48.726;8.892;2022-12-08T01:48:55;96276.63;;;10.44;40.23
31595;BME280;18200;48.726;8.892;2022-12-08T01:52:56;96268.41;;;10.04;41.39
31595;BME280;18200;48.726;8.892;2022-12-08T01:56:59;96272.97;;;10.00;41.09
31595;BME280;18200;48.726;8.892;2022-12-08T02:01:02;96266.97;;;10.10;41.42
31595;BME280;18200;48.726;8.892;2022-12-08T02:05:02;96262.88;;;9.90;42.06
31595;BME280;18200;48.726;8.892;2022-12-08T02:09:03;96255.44;;;9.80;42.47
31595;BME280;18200;48.726;8.892;2022-12-08T02:13:05;96254.97;;;9.74;42.22
31595;BME280;18200;48.726;8.892;2022-12-08T02:21:17;96257.41;;;9.83;41.18
31595;BME280;18200;48.726;8.892;2022-12-08T02:25:29;96247.00;;;9.52;41.76
31595;BME280;18200;48.726;8.892;2022-12-08T02:29:38;96240.69;;;9.67;41.32
31595;BME280;18200;48.726;8.892;2022-12-08T02:34:01;96233.59;;;9.29;42.05
31595;BME280;18200;48.726;8.892;2022-12-08T02:38:08;96220.25;;;9.59;42.10
31595;BME280;18200;48.726;8.892;2022-12-08T02:42:20;96226.97;;;9.72;41.88
31595;BME280;18200;48.726;8.892;2022-12-08T02:46:23;96215.81;;;9.70;42.35
31595;BME280;18200;48.726;8.892;2022-12-08T02:50:27;96210.28;;;9.56;41.87
31595;BME280;18200;48.726;8.892;2022-12-08T02:54:27;96214.16;;;9.58;42.48
31595;BME280;18200;48.726;8.892;2022-12-08T03:06:50;96217.28;;;9.64;40.77
31595;BME280;18200;48.726;8.892;2022-12-08T03:11:00;96201.81;;;9.54;40.80
31595;BME280;18200;48.726;8.892;2022-12-08T03:15:06;96196.25;;;9.39;41.31
31595;BME280;18200;48.726;8.892;2022-12-08T03:19:09;96198.34;;;9.53;41.38
31595;BME280;18200;48.726;8.892;2022-12-08T03:23:13;96194.19;;;9.56;41.39
31595;BME280;18200;48.726;8.892;2022-12-08T03:27:16;96190.28;;;9.50;41.17
31595;BME280;18200;48.726;8.892;2022-12-08T03:31:18;96187.59;;;9.23;41.32
31595;BME280;18200;48.726;8.892;2022-12-08T03:35:21;96180.66;;;9.22;41.78
31595;BME280;18200;48.726;8.892;2022-12-08T03:39:23;96176.13;;;9.26;41.48
31595;BME280;18200;48.726;8.892;2022-12-08T03:43:23;96168.84;;;9.01;41.82
31595;BME280;18200;48.726;8.892;2022-12-08T03:47:23;96156.63;;;9.03;42.01
31595;BME280;18200;48.726;8.892;2022-12-08T03:51:23;96164.28;;;8.56;43.11
31595;BME280;18200;48.726;8.892;2022-12-08T03:55:24;96157.22;;;8.90;42.83
31595;BME280;18200;48.726;8.892;2022-12-08T03:59:24;96155.06;;;8.76;42.65
31595;BME280;18200;48.726;8.892;2022-12-08T04:03:24;96150.94;;;8.82;41.69
31595;BME280;18200;48.726;8.892;2022-12-08T04:07:25;96147.31;;;8.94;42.67
31595;BME280;18200;48.726;8.892;2022-12-08T04:11:25;96154.03;;;8.84;42.85
31595;BME280;18200;48.726;8.892;2022-12-08T04:15:25;96142.63;;;8.23;42.69
31595;BME280;18200;48.726;8.892;2022-12-08T04:19:25;96152.34;;;7.93;44.11
31595;BME280;18200;48.726;8.892;2022-12-08T04:23:26;96143.09;;;8.70;43.06
31595;BME280;18200;48.726;8.892;2022-12-08T04:27:26;96147.19;;;8.87;42.87
31595;BME280;18200;48.726;8.892;2022-12-08T04:31:26;96145.34;;;9.13;42.25
31595;BME280;18200;48.726;8.892;2022-12-08T04:35:27;96138.91;;;8.95;41.43
31595;BME280;18200;48.726;8.892;2022-12-08T04:39:27;96144.38;;;9.02;41.68
31595;BME280;18200;48.726;8.892;2022-12-08T04:43:28;96150.72;;;8.68;41.25
31595;BME280;18200;48.726;8.892;2022-12-08T04:47:28;96142.78;;;8.30;42.37
31595;BME280;18200;48.726;8.892;2022-12-08T04:51:28;96143.06;;;7.87;44.41
31595;BME280;18200;48.726;8.892;2022-12-08T04:55:28;96140.50;;;8.51;42.62
31595;BME280;18200;48.726;8.892;2022-12-08T04:59:29;96143.97;;;8.78;42.27
31595;BME280;18200;48.726;8.892;2022-12-08T05:03:29;96147.31;;;8.71;42.14
31595;BME280;18200;48.726;8.892;2022-12-08T05:07:29;96142.38;;;8.73;41.95
31595;BME280;18200;48.726;8.892;2022-12-08T05:11:30;96133.94;;;8.26;42.74
31595;BME280;18200;48.726;8.892;2022-12-08T05:15:30;96131.44;;;8.59;42.62
31595;BME280;18200;48.726;8.892;2022-12-08T05:19:30;96121.38;;;8.30;42.89
31595;BME280;18200;48.726;8.892;2022-12-08T05:23:31;96124.63;;;8.20;42.60
31595;BME280;18200;48.726;8.892;2022-12-08T05:27:31;96127.28;;;8.39;43.19
31595;BME280;18200;48.726;8.892;2022-12-08T05:31:32;96122.47;;;8.71;42.31
31595;BME280;18200;48.726;8.892;2022-12-08T05:35:32;96123.53;;;8.66;42.45
31595;BME280;18200;48.726;8.892;2022-12-08T05:39:32;96123.69;;;8.12;42.01
31595;BME280;18200;48.726;8.892;2022-12-08T05:43:33;96118.94;;;8.02;42.76
31595;BME280;18200;48.726;8.892;2022-12-08T05:47:33;96126.72;;;7.34;43.90
31595;BME280;18200;48.726;8.892;2022-12-08T05:51:33;96123.03;;;7.58;43.96
31595;BME280;18200;48.726;8.892;2022-12-08T05:55:33;96117.53;;;7.70;43.14
31595;BME280;18200;48.726;8.892;2022-12-08T05:59:34;96118.13;;;7.60;42.51
31595;BME280;18200;48.726;8.892;2022-12-08T06:03:34;96119.06;;;7.52;42.76
31595;BME280;18200;48.726;8.892;2022-12-08T06:07:34;96118.91;;;6.91;43.45
31595;BME280;18200;48.726;8.892;2022-12-08T06:11:35;96115.97;;;7.69;43.49
31595;BME280;18200;48.726;8.892;2022-12-08T06:15:35;96117.91;;;7.68;43.13
31595;BME280;18200;48.726;8.892;2022-12-08T06:19:36;96116.06;;;7.72;42.75
31595;BME280;18200;48.726;8.892;2022-12-08T06:23:37;96113.34;;;7.15;42.75
31595;BME280;18200;48.726;8.892;2022-12-08T06:27:41;96119.69;;;6.76;43.69
31595;BME280;18200;48.726;8.892;2022-12-08T06:31:42;96118.72;;;7.34;43.66
31595;BME280;18200;48.726;8.892;2022-12-08T06:35:42;96118.03;;;7.56;43.29
31595;BME280;18200;48.726;8.892;2022-12-08T06:39:42;96125.78;;;7.61;42.67
31595;BME280;18200;48.726;8.892;2022-12-08T06:43:43;96113.09;;;7.77;42.74
31595;BME280;18200;48.726;8.892;2022-12-08T06:47:43;96116.75;;;7.69;42.36
31595;BME280;18200;48.726;8.892;2022-12-08T06:51:44;96118.81;;;7.57;42.09
31595;BME280;18200;48.726;8.892;2022-12-08T06:55:45;96119.25;;;7.24;43.20
31595;BME280;18200;48.726;8.892;2022-12-08T06:59:46;96120.56;;;7.68;42.99
31595;BME280;18200;48.726;8.892;2022-12-08T07:03:46;96120.91;;;7.86;42.19
31595;BME280;18200;48.726;8.892;2022-12-08T07:07:47;96123.66;;;7.90;42.45
31595;BME280;18200;48.726;8.892;2022-12-08T07:11:47;96124.22;;;7.60;41.71
31595;BME280;18200;48.726;8.892;2022-12-08T07:15:47;96126.25;;;7.67;42.63
31595;BME280;18200;48.726;8.892;2022-12-08T07:19:48;96119.44;;;7.50;42.73
31595;BME280;18200;48.726;8.892;2022-12-08T07:23:49;96125.50;;;7.47;42.50
31595;BME280;18200;48.726;8.892;2022-12-08T07:27:55;96121.66;;;7.29;43.26
31595;BME280;18200;48.726;8.892;2022-12-08T07:31:55;96127.72;;;7.45;43.30
31595;BME280;18200;48.726;8.892;2022-12-08T07:35:56;96135.63;;;7.57;43.33
31595;BME280;18200;48.726;8.892;2022-12-08T07:39:57;96139.09;;;7.77;42.65
31595;BME280;18200;48.726;8.892;2022-12-08T07:43:58;96138.16;;;7.69;42.18
31595;BME280;18200;48.726;8.892;2022-12-08T07:47:58;96132.22;;;7.79;42.04
31595;BME280;18200;48.726;8.892;2022-12-08T07:51:59;96138.31;;;7.76;42.40
31595;BME280;18200;48.726;8.892;2022-12-08T07:56:00;96129.81;;;6.86;43.41
31595;BME280;18200;48.726;8.892;2022-12-08T08:00:00;96128.59;;;7.15;43.94
31595;BME280;18200;48.726;8.892;2022-12-08T08:04:02;96127.88;;;7.52;43.60
31595;BME280;18200;48.726;8.892;2022-12-08T08:08:03;96116.28;;;7.64;43.55
31595;BME280;18200;48.726;8.892;2022-12-08T08:12:04;96116.06;;;7.72;43.73
31595;BME280;18200;48.726;8.892;2022-12-08T08:16:04;96109.88;;;7.49;43.95
31595;BME280;18200;48.726;8.892;2022-12-08T08:20:05;96109.16;;;7.71;43.39
31595;BME280;18200;48.726;8.892;2022-12-08T08:24:06;96105.22;;;7.84;43.49
31595;BME280;18200;48.726;8.892;2022-12-08T08:28:07;96111.13;;;7.94;43.41
31595;BME280;18200;48.726;8.892;2022-12-08T08:32:07;96110.94;;;8.25;43.34
31595;BME280;18200;48.726;8.892;2022-12-08T08:36:08;96112.13;;;8.05;43.18
31595;BME280;18200;48.726;8.892;2022-12-08T08:40:08;96108.03;;;7.92;43.72
31595;BME280;18200;48.726;8.892;2022-12-08T08:44:09;96118.59;;;7.84;44.31
31595;BME280;18200;48.726;8.892;2022-12-08T08:48:09;96111.09;;;8.32;44.29
31595;BME280;18200;48.726;8.892;2022-12-08T08:52:09;96102.53;;;8.68;43.74
31595;BME280;18200;48.726;8.892;2022-12-08T08:56:11;96105.53;;;8.89;44.01
31595;BME280;18200;48.726;8.892;2022-12-08T09:00:14;96096.56;;;9.30;43.65
31595;BME280;18200;48.726;8.892;2022-12-08T09:09:25;96081.69;;;9.66;42.85
31595;BME280;18200;48.726;8.892;2022-12-08T09:36:30;96058.19;;;10.70;42.56
31595;BME280;18200;48.726;8.892;2022-12-08T09:50:42;96056.34;;;11.39;41.66
31595;BME280;18200;48.726;8.892;2022-12-08T09:54:59;96056.00;;;11.51;41.40
31595;BME280;18200;48.726;8.892;2022-12-08T10:07:44;96046.53;;;11.89;40.70
31595;BME280;18200;48.726;8.892;2022-12-08T10:24:40;96028.94;;;12.40;40.06
31595;BME280;18200;48.726;8.892;2022-12-08T10:28:43;96013.94;;;12.75;39.86
31595;BME280;18200;48.726;8.892;2022-12-08T10:32:44;96011.94;;;13.21;38.35
31595;BME280;18200;48.726;8.892;2022-12-08T10:49:31;95995.56;;;13.63;38.29
31595;BME280;18200;48.726;8.892;2022-12-08T10:53:41;95990.59;;;13.58;37.65
31595;BME280;18200;48.726;8.892;2022-12-08T10:57:43;95988.00;;;13.37;38.60
31595;BME280;18200;48.726;8.892;2022-12-08T11:01:45;95993.22;;;13.72;37.84
31595;BME280;18200;48.726;8.892;2022-12-08T11:05:46;95980.19;;;13.60;37.48
31595;BME280;18200;48.726;8.892;2022-12-08T11:09:47;95979.09;;;13.40;37.54
31595;BME280;18200;48.726;8.892;2022-12-08T11:13:51;95971.50;;;13.93;37.38
31595;BME280;18200;48.726;8.892;2022-12-08T11:22:24;95957.13;;;14.11;37.50
31595;BME280;18200;48.726;8.892;2022-12-08T11:54:44;95935.78;;;14.27;36.65
31595;BME280;18200;48.726;8.892;2022-12-08T12:02:36;95929.63;;;14.23;36.83
31595;BME280;18200;48.726;8.892;2022-12-08T13:03:32;95879.34;;;14.36;35.77
31595;BME280;18200;48.726;8.892;2022-12-08T13:07:40;95882.84;;;14.36;35.77
31595;BME280;18200;48.726;8.892;2022-12-08T13:16:11;95882.94;;;14.22;36.73
31595;BME280;18200;48.726;8.892;2022-12-08T13:20:21;95882.94;;;14.22;36.09
31595;BME280;18200;48.726;8.892;2022-12-08T13:29:11;95885.38;;;14.88;35.53
31595;BME280;18200;48.726;8.892;2022-12-08T13:33:29;95882.22;;;14.59;35.10
31595;BME280;18200;48.726;8.892;2022-12-08T13:42:48;95875.88;;;14.39;36.12
31595;BME280;18200;48.726;8.892;2022-12-08T13:46:56;95871.09;;;14.53;36.24
31595;BME280;18200;48.726;8.892;2022-12-08T13:51:12;95876.28;;;14.34;36.33
31595;BME280;18200;48.726;8.892;2022-12-08T13:55:58;95872.66;;;14.07;36.66
31595;BME280;18200;48.726;8.892;2022-12-08T14:00:00;95869.75;;;13.83;37.45
31595;BME280;18200;48.726;8.892;2022-12-08T14:04:01;95863.28;;;13.70;37.13
31595;BME280;18200;48.726;8.892;2022-12-08T14:08:01;95870.94;;;14.27;37.21
31595;BME280;18200;48.726;8.892;2022-12-08T14:12:06;95868.84;;;14.00;36.95
31595;BME280;18200;48.726;8.892;2022-12-08T14:16:14;95869.91;;;14.10;36.76
31595;BME280;18200;48.726;8.892;2022-12-08T14:20:32;95868.22;;;13.82;37.40
31595;BME280;18200;48.726;8.892;2022-12-08T14:24:32;95876.47;;;14.13;36.74
31595;BME280;18200;48.726;8.892;2022-12-08T14:28:33;95873.13;;;13.43;37.61
31595;BME280;18200;48.726;8.892;2022-12-08T14:32:36;95869.09;;;13.65;37.64
31595;BME280;18200;48.726;8.892;2022-12-08T14:36:37;95870.88;;;13.89;37.55
31595;BME280;18200;48.726;8.892;2022-12-08T14:40:38;95870.38;;;14.01;36.80
31595;BME280;18200;48.726;8.892;2022-12-08T14:44:39;95870.69;;;14.11;37.33
31595;BME280;18200;48.726;8.892;2022-12-08T14:48:40;95872.97;;;14.12;36.84
31595;BME280;18200;48.726;8.892;2022-12-08T14:52:46;95865.44;;;14.41;36.52
31595;BME280;18200;48.726;8.892;2022-12-08T14:56:50;95862.41;;;14.32;36.10
31595;BME280;18200;48.726;8.892;2022-12-08T15:00:55;95866.38;;;14.17;35.76
31595;BME280;18200;48.726;8.892;2022-12-08T15:04:59;95866.47;;;14.10;35.54
31595;BME280;18200;48.726;8.892;2022-12-08T15:09:12;95863.41;;;14.04;36.00
31595;BME280;18200;48.726;8.892;2022-12-08T15:21:26;95865.22;;;13.73;36.62
31595;BME280;18200;48.726;8.892;2022-12-08T15:25:28;95863.50;;;13.93;35.49
31595;BME280;18200;48.726;8.892;2022-12-08T15:29:53;95862.88;;;13.75;36.10
31595;BME280;18200;48.726;8.892;2022-12-08T15:33:53;95863.13;;;13.91;35.66
31595;BME280;18200;48.726;8.892;2022-12-08T15:37:54;95864.72;;;13.85;35.33
31595;BME280;18200;48.726;8.892;2022-12-08T15:41:54;95862.88;;;13.75;35.78
31595;BME280;18200;48.726;8.892;2022-12-08T15:45:55;95858.13;;;13.90;35.48
31595;BME280;18200;48.726;8.892;2022-12-08T15:49:55;95862.16;;;13.71;35.34
31595;BME280;18200;48.726;8.892;2022-12-08T15:53:55;95854.88;;;13.61;36.22
31595;BME280;18200;48.726;8.892;2022-12-08T16:02:13;95850.16;;;13.17;38.26
31595;BME280;18200;48.726;8.892;2022-12-08T16:06:57;95848.50;;;13.34;37.80
31595;BME280;18200;48.726;8.892;2022-12-08T16:10:57;95843.06;;;13.41;37.77
31595;BME280;18200;48.726;8.892;2022-12-08T16:15:16;95841.50;;;13.47;37.62
31595;BME280;18200;48.726;8.892;2022-12-08T16:19:17;95842.38;;;13.30;37.65
31595;BME280;18200;48.726;8.892;2022-12-08T16:23:17;95835.34;;;13.43;38.21
31595;BME280;18200;48.726;8.892;2022-12-08T16:27:20;95841.13;;;13.45;37.58
31595;BME280;18200;48.726;8.892;2022-12-08T16:32:14;95829.97;;;13.40;37.96
31595;BME280;18200;48.726;8.892;2022-12-08T16:36:14;95822.63;;;13.44;37.53
31595;BME280;18200;48.726;8.892;2022-12-08T16:40:15;95826.84;;;13.45;37.47
31595;BME280;18200;48.726;8.892;2022-12-08T16:44:19;95831.13;;;12.63;39.53
31595;BME280;18200;48.726;8.892;2022-12-08T16:48:20;95820.94;;;12.95;38.55
31595;BME280;18200;48.726;8.892;2022-12-08T16:52:21;95824.56;;;12.57;40.40
31595;BME280;18200;48.726;8.892;2022-12-08T16:56:22;95837.38;;;12.10;40.33
31595;BME280;18200;48.726;8.892;2022-12-08T17:00:23;95830.41;;;12.37;40.88
31595;BME280;18200;48.726;8.892;2022-12-08T17:04:24;95825.56;;;12.98;39.78
31595;BME280;18200;48.726;8.892;2022-12-08T17:08:25;95821.78;;;12.88;39.32
31595;BME280;18200;48.726;8.892;2022-12-08T17:12:26;95821.94;;;12.42;39.76
31595;BME280;18200;48.726;8.892;2022-12-08T17:16:29;95820.25;;;12.84;39.35
31595;BME280;18200;48.726;8.892;2022-12-08T17:20:29;95821.78;;;12.78;39.58
31595;BME280;18200;48.726;8.892;2022-12-08T17:24:30;95825.03;;;12.27;39.83
31595;BME280;18200;48.726;8.892;2022-12-08T17:28:30;95822.41;;;12.09;41.23
31595;BME280;18200;48.726;8.892;2022-12-08T17:32:31;95822.59;;;12.75;39.71
31595;BME280;18200;48.726;8.892;2022-12-08T17:36:32;95822.50;;;12.96;38.38
31595;BME280;18200;48.726;8.892;2022-12-08T17:49:52;95825.06;;;12.30;39.89
31595;BME280;18200;48.726;8.892;2022-12-08T17:53:55;95825.44;;;12.32;39.71
31595;BME280;18200;48.726;8.892;2022-12-08T17:57:55;95833.50;;;12.32;40.22
31595;BME280;18200;48.726;8.892;2022-12-08T18:01:56;95832.66;;;12.57;39.80
31595;BME280;18200;48.726;8.892;2022-12-08T18:06:02;95829.06;;;12.84;39.85
31595;BME280;18200;48.726;8.892;2022-12-08T18:10:03;95830.94;;;13.01;39.15
31595;BME280;18200;48.726;8.892;2022-12-08T18:14:04;95832.13;;;12.93;39.01
31595;BME280;18200;48.726;8.892;2022-12-08T18:18:09;95839.59;;;12.54;39.23
31595;BME280;18200;48.726;8.892;2022-12-08T18:22:09;95834.25;;;12.40;39.98
31595;BME280;18200;48.726;8.892;2022-12-08T18:26:12;95822.03;;;11.93;41.03
31595;BME280;18200;48.726;8.892;2022-12-08T18:30:14;95814.34;;;12.02;40.90
31595;BME280;18200;48.726;8.892;2022-12-08T18:34:15;95812.78;;;12.15;40.77
31595;BME280;18200;48.726;8.892;2022-12-08T18:38:18;95812.00;;;12.11;40.24
31595;BME280;18200;48.726;8.892;2022-12-08T18:42:18;95818.16;;;11.59;42.24
31595;BME280;18200;48.726;8.892;2022-12-08T18:46:22;95816.25;;;11.84;41.12
31595;BME280;18200;48.726;8.892;2022-12-08T18:50:22;95803.97;;;11.80;40.92
31595;BME280;18200;48.726;8.892;2022-12-08T18:54:23;95812.00;;;11.48;41.46
31595;BME280;18200;48.726;8.892;2022-12-08T18:58:23;95817.28;;;10.91;43.18
31595;BME280;18200;48.726;8.892;2022-12-08T19:02:23;95803.94;;;11.34;42.96
31595;BME280;18200;48.726;8.892;2022-12-08T19:06:23;95802.81;;;11.35;42.41
31595;BME280;18200;48.726;8.892;2022-12-08T19:10:24;95799.72;;;11.50;42.16
31595;BME280;18200;48.726;8.892;2022-12-08T19:14:24;95805.91;;;11.72;41.53
31595;BME280;18200;48.726;8.892;2022-12-08T19:18:25;95815.13;;;11.71;41.42
31595;BME280;18200;48.726;8.892;2022-12-08T19:22:25;95804.34;;;11.78;40.96
31595;BME280;18200;48.726;8.892;2022-12-08T19:26:26;95808.19;;;11.56;40.61
31595;BME280;18200;48.726;8.892;2022-12-08T19:30:27;95803.19;;;11.37;41.19
31595;BME280;18200;48.726;8.892;2022-12-08T19:34:27;95796.28;;;11.43;40.40
31595;BME280;18200;48.726;8.892;2022-12-08T19:38:27;95784.38;;;11.37;40.87
31595;BME280;18200;48.726;8.892;2022-12-08T19:42:27;95780.50;;;11.24;41.01
31595;BME280;18200;48.726;8.892;2022-12-08T19:46:46;95782.03;;;11.25;40.44
31595;BME280;18200;48.726;8.892;2022-12-08T19:50:47;95779.75;;;11.20;40.40
31595;BME280;18200;48.726;8.892;2022-12-08T19:54:47;95775.47;;;10.94;41.44
31595;BME280;18200;48.726;8.892;2022-12-08T19:58:47;95782.81;;;11.25;40.82
31595;BME280;18200;48.726;8.892;2022-12-08T20:02:48;95778.94;;;11.09;40.11
31595;BME280;18200;48.726;8.892;2022-12-08T20:06:49;95779.72;;;11.09;40.66
31595;BME280;18200;48.726;8.892;2022-12-08T20:10:49;95777.78;;;11.10;40.49
31595;BME280;18200;48.726;8.892;2022-12-08T20:14:51;95788.94;;;11.05;40.35
31595;BME280;18200;48.726;8.892;2022-12-08T20:18:51;95777.78;;;10.92;39.98
31595;BME280;18200;48.726;8.892;2022-12-08T20:22:51;95786.16;;;10.76;40.28
31595;BME280;18200;48.726;8.892;2022-12-08T20:26:52;95786.56;;;10.78;40.75
31595;BME280;18200;48.726;8.892;2022-12-08T20:30:52;95792.25;;;10.63;41.57
31595;BME280;18200;48.726;8.892;2022-12-08T20:34:52;95789.59;;;10.66;41.18
31595;BME280;18200;48.726;8.892;2022-12-08T20:38:53;95785.72;;;10.53;41.00
31595;BME280;18200;48.726;8.892;2022-12-08T20:42:53;95792.59;;;10.47;41.28
31595;BME280;18200;48.726;8.892;2022-12-08T20:46:54;95801.03;;;10.49;41.11
31595;BME280;18200;48.726;8.892;2022-12-08T20:50:54;95801.44;;;10.51;41.11
31595;BME280;18200;48.726;8.892;2022-12-08T20:54:54;95794.91;;;10.52;40.71
31595;BME280;18200;48.726;8.892;2022-12-08T20:58:56;95792.16;;;10.35;40.47
31595;BME280;18200;48.726;8.892;2022-12-08T21:02:57;95793.19;;;10.12;41.41
31595;BME280;18200;48.726;8.892;2022-12-08T21:06:57;95788.53;;;10.09;41.37
31595;BME280;18200;48.726;8.892;2022-12-08T21:10:58;95786.88;;;9.91;41.41
31595;BME280;18200;48.726;8.892;2022-12-08T21:14:59;95789.25;;;10.03;41.06
31595;BME280;18200;48.726;8.892;2022-12-08T21:18:59;95786.59;;;9.49;42.05
31595;BME280;18200;48.726;8.892;2022-12-08T21:22:59;95782.88;;;9.64;41.95
31595;BME280;18200;48.726;8.892;2022-12-08T21:27:00;95782.81;;;9.53;41.49
31595;BME280;18200;48.726;8.892;2022-12-08T21:31:04;95788.56;;;9.52;42.04
31595;BME280;18200;48.726;8.892;2022-12-08T21:35:04;95789.03;;;9.68;42.50
31595;BME280;18200;48.726;8.892;2022-12-08T21:39:13;95786.09;;;9.83;42.02
31595;BME280;18200;48.726;8.892;2022-12-08T21:43:13;95791.25;;;9.59;41.57
31595;BME280;18200;48.726;8.892;2022-12-08T21:47:14;95792.81;;;9.60;41.46
31595;BME280;18200;48.726;8.892;2022-12-08T21:51:15;95788.34;;;9.78;41.97
31595;BME280;18200;48.726;8.892;2022-12-08T21:55:16;95780.69;;;9.80;41.37
31595;BME280;18200;48.726;8.892;2022-12-08T21:59:17;95783.41;;;9.87;41.08
31595;BME280;18200;48.726;8.892;2022-12-08T22:03:19;95781.72;;;9.61;40.37
31595;BME280;18200;48.726;8.892;2022-12-08T22:07:20;95791.66;;;9.13;42.11
31595;BME280;18200;48.726;8.892;2022-12-08T22:11:20;95789.59;;;9.40;41.76
31595;BME280;18200;48.726;8.892;2022-12-08T22:15:20;95784.16;;;9.29;41.55
31595;BME280;18200;48.726;8.892;2022-12-08T22:19:21;95787.69;;;9.41;41.51
31595;BME280;18200;48.726;8.892;2022-12-08T22:23:23;95794.03;;;9.22;41.63
31595;BME280;18200;48.726;8.892;2022-12-08T22:27:23;95786.44;;;9.27;40.99
31595;BME280;18200;48.726;8.892;2022-12-08T22:31:24;95782.91;;;9.20;41.10
31595;BME280;18200;48.726;8.892;2022-12-08T22:35:25;95768.47;;;8.88;40.67
31595;BME280;18200;48.726;8.892;2022-12-08T22:39:25;95774.09;;;8.42;42.04
31595;BME280;18200;48.726;8.892;2022-12-08T22:43:25;95774.66;;;8.25;41.84
31595;BME280;18200;48.726;8.892;2022-12-08T22:47:27;95770.63;;;8.75;42.54
31595;BME280;18200;48.726;8.892;2022-12-08T22:51:27;95771.59;;;8.97;42.11
31595;BME280;18200;48.726;8.892;2022-12-08T22:55:28;95773.53;;;8.96;41.78
31595;BME280;18200;48.726;8.892;2022-12-08T22:59:28;95768.41;;;8.84;40.85
31595;BME280;18200;48.726;8.892;2022-12-08T23:03:28;95760.34;;;8.81;41.07
31595;BME280;18200;48.726;8.892;2022-12-08T23:07:29;95747.97;;;8.69;41.04
31595;BME280;18200;48.726;8.892;2022-12-08T23:11:29;95739.50;;;8.60;41.57
31595;BME280;18200;48.726;8.892;2022-12-08T23:15:30;95739.94;;;8.66;40.82
31595;BME280;18200;48.726;8.892;2022-12-08T23:19:30;95755.38;;;8.46;40.39
31595;BME280;18200;48.726;8.892;2022-12-08T23:23:31;95744.19;;;8.37;40.83
31595;BME280;18200;48.726;8.892;2022-12-08T23:27:31;95732.19;;;8.57;41.69
31595;BME280;18200;48.726;8.892;2022-12-08T23:31:32;95737.22;;;7.69;41.75
31595;BME280;18200;48.726;8.892;2022-12-08T23:35:32;95728.09;;;8.30;41.17
31595;BME280;18200;48.726;8.892;2022-12-08T23:39:32;95712.16;;;8.44;40.99
31595;BME280;18200;48.726;8.892;2022-12-08T23:43:33;95715.91;;;8.36;40.70
31595;BME280;18200;48.726;8.892;2022-12-08T23:47:34;95712.97;;;8.48;40.89
31595;BME280;18200;48.726;8.892;2022-12-08T23:51:35;95712.75;;;8.27;41.30
31595;BME280;18200;48.726;8.892;2022-12-08T23:55:35;95702.94;;;8.38;40.59
31595;BME280;18200;48.726;8.892;2022-12-08T23:59:35;95693.72;;;8.35;40.68
